Abington, Connecticut
Current Conditions -  °F | °C
As of 1:52 AM on Saturday 25 Oct 2014 (Local Time) from KIJD Reporting Station
Clear Clear  
Wind Chill:   Ceiling: Unl
Heat Index:   Visibility: 10mi
Dew Point:   Wind: 0mph
Humidity: 89%   Direction: NA
Pressure: 29.78"   Gusts: NA
Location:  41.86°N, 72.01°W
Report Text: KIJD 250552Z AUTO 00000KT 10SM CLR 07/05 A2978 RMK AO2 SLP083 T00670050 10111 20067 50000
Loading
Personal Weather Stations






























Interactive Weather Map
Tropical Storm Tracking
New forecast layout! Learn more

10-Day Weather Forecast

Advertisements
Track Severe Weather on mobile